createdAt,value
2022-08-04T00:14:03.652Z,36.35
2022-08-04T00:29:06.121Z,37.08
2022-08-04T00:44:08.350Z,37.65
2022-08-04T00:59:10.561Z,37.5
2022-08-04T01:14:12.986Z,37.09
2022-08-04T01:29:16.047Z,37.11
2022-08-04T01:44:18.433Z,36.33
2022-08-04T01:59:20.643Z,35.01
2022-08-04T02:14:22.930Z,33.87
2022-08-04T02:29:27.316Z,33.62
2022-08-04T02:44:32.779Z,32.3
2022-08-04T02:59:35.033Z,31.87
2022-08-04T03:14:37.258Z,30.57
2022-08-04T03:29:39.456Z,29.27
2022-08-04T03:44:41.657Z,28.44
2022-08-04T03:59:48.854Z,27.9
2022-08-04T04:14:51.459Z,27.14
2022-08-04T04:29:53.668Z,26.55
2022-08-04T04:44:55.955Z,25.87
2022-08-04T04:59:58.128Z,25.19
2022-08-04T05:15:00.329Z,24.77
2022-08-04T05:30:02.583Z,23.94
2022-08-04T05:45:04.826Z,23.85
2022-08-04T06:00:19.876Z,23.59
2022-08-04T06:15:46.130Z,22.33
2022-08-04T06:30:48.727Z,22.18
2022-08-04T06:45:50.969Z,22.07
2022-08-04T07:00:53.161Z,21.2
2022-08-04T07:15:55.375Z,21.27
2022-08-04T07:30:57.604Z,21.02
2022-08-04T07:45:59.835Z,20.67
2022-08-04T08:01:02.071Z,20.14
2022-08-04T08:16:05.227Z,20.52
2022-08-04T08:31:07.455Z,20.27
2022-08-04T08:46:09.631Z,19.4
2022-08-04T09:01:11.974Z,20.41
2022-08-04T09:16:14.432Z,19.43
2022-08-04T09:31:16.813Z,19.58
2022-08-04T09:46:19.082Z,18.75
2022-08-04T10:01:23.590Z,19.52
2022-08-04T10:16:26.307Z,19.36
2022-08-04T10:31:28.596Z,19.38
2022-08-04T10:46:30.957Z,19.32
2022-08-04T11:02:01.826Z,19.44
2022-08-04T11:17:05.605Z,19.5
2022-08-04T11:32:07.778Z,19.6
2022-08-04T11:47:09.966Z,19.8
2022-08-04T12:02:12.234Z,19.84
2022-08-04T12:17:14.573Z,19.51
2022-08-04T12:32:18.310Z,19.43
2022-08-04T12:47:27.588Z,19.99
2022-08-04T13:02:39.229Z,19.65
2022-08-04T13:17:41.475Z,20.14
2022-08-04T13:32:43.765Z,20.56
2022-08-04T13:47:45.963Z,20.46
2022-08-04T14:02:48.199Z,20.11
2022-08-04T14:17:50.581Z,20.24
2022-08-04T14:32:52.974Z,20.69
2022-08-04T14:47:58.791Z,20.13
2022-08-04T15:03:01.016Z,20.42
2022-08-04T15:18:03.185Z,20.65
2022-08-04T15:33:05.357Z,20.18
2022-08-04T15:48:07.550Z,21.34
2022-08-04T16:03:09.775Z,22.12
2022-08-04T16:18:25.592Z,22.14
2022-08-04T16:33:28.296Z,22.42
2022-08-04T16:48:46.607Z,22.4
2022-08-04T17:03:56.084Z,23.84
2022-08-04T17:19:00.154Z,24.88
2022-08-04T17:34:02.358Z,24.85
2022-08-04T17:49:04.742Z,24.93
2022-08-04T18:04:06.915Z,24.94
2022-08-04T18:19:09.930Z,26.19
2022-08-04T18:34:20.509Z,27.43
2022-08-04T18:50:58.737Z,26.81
2022-08-04T19:06:12.385Z,27.94
2022-08-04T19:21:14.741Z,27.84
2022-08-04T19:36:17.267Z,27.52
2022-08-04T19:51:19.708Z,27.83
2022-08-04T20:06:24.789Z,27.94
2022-08-04T20:21:54.016Z,27.88
2022-08-04T20:36:58.814Z,28.35
2022-08-04T20:52:04.885Z,28.82
2022-08-04T21:07:10.937Z,28.97
2022-08-04T21:22:29.778Z,29.3
2022-08-04T21:37:56.688Z,29.36
2022-08-04T21:53:01.016Z,30.14
2022-08-04T22:08:03.362Z,30.61
2022-08-04T22:23:06.389Z,31.57
2022-08-04T22:38:27.857Z,30.57
2022-08-04T22:53:39.713Z,30.49
2022-08-04T23:08:43.290Z,27.91
2022-08-04T23:24:00.701Z,25.49
2022-08-04T23:39:05.541Z,25.38
2022-08-04T23:54:08.139Z,25.76
